Lakeview, OR

2:35 PM PDT on October 20, 2014 (GMT -0700)
Agrisea's Weather Station - Northside | Change Station
CLOSE
Current Station
Personal Weather Station
Location: Lakeview, OR
Elevation: 4800 ft
Nearby Weather Stations

Elev 4800 ft 42.20 °N, 120.35 °W | Updated 11 seconds ago

Mostly Cloudy
Mostly Cloudy
59.9 °F
Feels Like 59.9 °F
N
5.4
Wind Variable Wind from WSW
Gusts 12.5 mph

Today
High -- | Low -- °F
--% Chance of Precip.
Yesterday
High -- | Low -- °F
Precip. -- in
7:20 AM 6:11 PM
Waning Crescent, 9% visible
Pressure 29.87 in
Visibility 10.0 miles
Clouds Mostly Cloudy 7000 ft
Mostly Cloudy 8000 ft
Dew Point 32 °F
Humidity 35%
Rainfall 0.00 in
Snow Depth Not available.
UV 2 out of 12
Pollen 2.50 out of 12
Air Quality Not available.
Flu Activity Sporadic
METAR KLKV 202115Z AUTO 23017KT 10SM BKN070 BKN080 17/03 A2987 RMK AO1

More Conditions Fewer Conditions

Pressure 29.87 in
Visibility 10.0 miles
Clouds Mostly Cloudy 7000 ft
Mostly Cloudy 8000 ft
Dew Point 32 °F
Humidity 35%
Rainfall 0.00 in
Snow Depth Not available.
UV 2 out of 12
Pollen 2.50 out of 12
Air Quality Not available.
Flu Activity Sporadic
METAR KLKV 202115Z AUTO 23017KT 10SM BKN070 BKN080 17/03 A2987 RMK AO1

More Conditions Fewer Conditions

10-Day Weather Forecast

Almanac

Astronomy

Oct. 20, 2014 Rise Set
Actual Time 7:20 AM PDT 6:11 PM PDT
Civil Twilight 6:51 AM PDT 6:40 PM PDT
Nautical Twilight 6:18 AM PDT 7:12 PM PDT
Astronomical Twilight 5:46 AM PDT 7:44 PM PDT
Moon 4:09 AM PDT 4:39 PM PDT
Length of Visible Light 11h 48m
Length of Day
10h 51m
Waning Crescent, 9% of the Moon is Illuminated
Today
Waning Crescent
Oct 23
New
Oct 30
First Quarter
Nov 6
Full
Nov 14
Last Quarter

Today's Extremes

State Highs State Lows

Community

WunderPhotos

Upload Photos

1,763,525 photos uploaded!

WunderBlogs® & News

Nearby

Snow Depth

Station Depth Elevation
Gerber Reservoir 0 in 4850 ft
Summer Rim 1 in 7100 ft
Silver Creek 0 in 5720 ft
Strawberry 0 in 5760 ft
Fish Creek 0 in 7900 ft

Earthquake Activity

City Distance Mag. Time & Date
No recent earthquake activity has been reported nearby.
Minimum magnitude displayed is 2.5.

Coastal Water Temperatures

Place Temperature
No Stations Reporting

Nearby Weather Stations